Time;durP1;ratioP1;P1;durP2;ratioP2;P2;SDS_P1;SDS_P2;PMS_P1;PMS_P2;Temp;Humidity;BMP_temperature;BMP_pressure;BME280_temperature;BME280_humidity;BME280_pressure;Samples;Min_cycle;Max_cycle;Signal;HPM_P1;HPM_P2
2023/07/16 00:01:33;;;;;;;8.63;1.30;;;;;;;13.57;100.00;99028.50;5049361;28;20051;-80
2023/07/16 00:03:59;;;;;;;5.57;0.98;;;;;;;13.57;100.00;99020.53;5088224;28;20041;-81
2023/07/16 00:06:25;;;;;;;3.03;0.75;;;;;;;13.55;100.00;99025.22;5048523;28;20020;-81
2023/07/16 00:08:51;;;;;;;3.13;1.00;;;;;;;13.48;100.00;99025.97;5071729;28;20107;-81
2023/07/16 00:11:17;;;;;;;4.95;1.13;;;;;;;13.46;100.00;99032.47;5061137;28;20047;-79
2023/07/16 00:13:46;;;;;;;8.85;1.20;;;;;;;13.43;100.00;99032.88;5062084;28;20028;-81
2023/07/16 00:16:13;;;;;;;9.48;1.73;;;;;;;13.40;100.00;99026.13;5031937;28;20477;-81
2023/07/16 00:18:39;;;;;;;5.90;1.33;;;;;;;13.39;100.00;99033.28;5015244;28;20119;-81
2023/07/16 00:21:05;;;;;;;7.30;1.13;;;;;;;13.40;100.00;99029.63;5074340;28;20130;-81
2023/07/16 00:23:31;;;;;;;11.20;1.65;;;;;;;13.40;100.00;99036.75;5044345;28;20072;-81
2023/07/16 00:25:56;;;;;;;4.78;1.30;;;;;;;13.37;100.00;99027.38;5078012;28;20301;-80
2023/07/16 00:28:22;;;;;;;8.30;1.58;;;;;;;13.37;100.00;99048.59;5062090;28;20617;-80
2023/07/16 00:30:48;;;;;;;9.82;1.67;;;;;;;13.35;100.00;99037.34;5035693;28;20039;-79
2023/07/16 00:33:14;;;;;;;8.10;1.73;;;;;;;13.36;100.00;99043.47;5065552;28;20082;-81
2023/07/16 00:35:47;;;;;;;8.80;1.35;;;;;;;13.38;100.00;99039.59;5038293;28;20033;-80
2023/07/16 00:38:13;;;;;;;6.80;1.80;;;;;;;13.34;100.00;99043.69;5060631;28;20485;-79
2023/07/16 00:40:38;;;;;;;6.03;1.63;;;;;;;13.35;100.00;99055.94;5032513;28;20028;-80
2023/07/16 00:43:04;;;;;;;10.68;2.13;;;;;;;13.34;100.00;99056.13;5026559;28;20484;-81
2023/07/16 00:45:30;;;;;;;15.48;2.30;;;;;;;13.37;100.00;99050.41;5064343;28;20043;-80
2023/07/16 00:47:57;;;;;;;6.93;1.40;;;;;;;13.37;100.00;99059.22;5033567;28;20044;-82
2023/07/16 00:50:24;;;;;;;10.75;1.92;;;;;;;13.38;100.00;99062.66;5044072;28;20044;-81
2023/07/16 00:52:50;;;;;;;14.82;2.15;;;;;;;13.36;100.00;99068.16;5062006;28;20203;-81
2023/07/16 00:55:16;;;;;;;10.68;2.38;;;;;;;13.38;100.00;99071.44;5067705;28;20123;-81
2023/07/16 00:57:43;;;;;;;10.68;2.03;;;;;;;13.39;100.00;99077.59;5064245;28;20412;-81
2023/07/16 01:00:10;;;;;;;9.68;1.70;;;;;;;13.40;100.00;99085.34;5062043;28;20717;-80
2023/07/16 01:02:36;;;;;;;10.95;1.77;;;;;;;13.39;100.00;99089.00;5066223;28;20392;-81
2023/07/16 01:05:02;;;;;;;9.15;1.90;;;;;;;13.38;100.00;99081.25;5048867;28;20029;-81
2023/07/16 01:07:30;;;;;;;11.05;2.10;;;;;;;13.42;100.00;99087.81;5054957;28;20040;-82
2023/07/16 01:09:58;;;;;;;13.63;2.20;;;;;;;13.43;100.00;99097.41;5052675;28;20035;-82
2023/07/16 01:12:26;;;;;;;12.20;2.70;;;;;;;13.45;100.00;99099.84;5065807;28;20028;-81
2023/07/16 01:14:53;;;;;;;22.45;2.47;;;;;;;13.44;100.00;99095.56;5036047;28;20538;-81
2023/07/16 01:17:19;;;;;;;7.63;1.60;;;;;;;13.46;100.00;99099.66;5036920;28;20040;-82
2023/07/16 01:19:45;;;;;;;8.20;1.90;;;;;;;13.47;100.00;99098.63;5064890;28;20035;-81
2023/07/16 01:22:30;;;;;;;9.55;2.08;;;;;;;13.49;100.00;99101.91;5030796;28;20123;-79
2023/07/16 01:25:20;;;;;;;11.75;1.70;;;;;;;13.48;100.00;99100.28;5075885;28;20040;-79
2023/07/16 01:27:49;;;;;;;9.13;1.58;;;;;;;13.45;100.00;99105.16;5054865;28;20086;-79
2023/07/16 01:30:17;;;;;;;11.68;2.20;;;;;;;13.46;100.00;99112.09;5074728;28;20388;-79
2023/07/16 01:32:45;;;;;;;12.00;1.88;;;;;;;13.46;100.00;99114.75;5045178;28;20036;-82
2023/07/16 01:35:12;;;;;;;10.38;1.98;;;;;;;13.44;100.00;99114.16;5071007;28;20119;-81
2023/07/16 01:37:38;;;;;;;11.38;1.58;;;;;;;13.45;100.00;99124.56;5034049;28;20036;-80
2023/07/16 01:40:07;;;;;;;7.30;1.63;;;;;;;13.47;100.00;99122.53;5052692;28;20123;-83
2023/07/16 01:42:33;;;;;;;9.27;1.50;;;;;;;13.48;100.00;99126.00;5052918;28;20028;-81
2023/07/16 01:44:59;;;;;;;6.60;1.30;;;;;;;13.52;100.00;99132.63;5052182;28;20049;-80
2023/07/16 01:47:40;;;;;;;8.73;1.70;;;;;;;13.53;100.00;99134.25;5021636;28;20048;-80
2023/07/16 01:50:07;;;;;;;11.98;1.40;;;;;;;13.51;100.00;99129.13;5020115;28;20034;-80
2023/07/16 01:52:32;;;;;;;10.05;1.70;;;;;;;13.51;100.00;99145.06;5058133;28;20043;-80
2023/07/16 01:54:59;;;;;;;10.30;1.88;;;;;;;13.50;100.00;99143.44;5056316;28;20017;-80
2023/07/16 01:57:27;;;;;;;8.55;1.48;;;;;;;13.49;100.00;99146.25;5036589;28;20041;-80
2023/07/16 01:59:52;;;;;;;14.95;2.08;;;;;;;13.46;100.00;99152.75;5051535;28;20056;-81
2023/07/16 02:02:18;;;;;;;6.88;1.15;;;;;;;13.43;100.00;99144.34;5074519;28;20534;-82
2023/07/16 02:04:45;;;;;;;8.90;1.52;;;;;;;13.40;100.00;99157.00;5084037;28;20050;-83
2023/07/16 02:07:11;;;;;;;15.40;2.33;;;;;;;13.37;100.00;99156.56;5049708;28;20050;-81
2023/07/16 02:09:36;;;;;;;9.32;1.70;;;;;;;13.36;100.00;99153.09;5046428;28;20029;-82
2023/07/16 02:12:03;;;;;;;18.02;2.17;;;;;;;13.38;100.00;99150.25;5066490;28;20032;-83
2023/07/16 02:14:29;;;;;;;9.95;2.22;;;;;;;13.36;100.00;99153.09;5032599;28;20110;-80
2023/07/16 02:16:55;;;;;;;10.23;1.63;;;;;;;13.38;100.00;99150.25;5053428;28;20025;-80
2023/07/16 02:19:21;;;;;;;8.88;2.10;;;;;;;13.35;100.00;99148.81;5042123;28;20040;-78
2023/07/16 02:21:46;;;;;;;7.00;1.40;;;;;;;13.35;100.00;99159.44;5045701;28;20363;-79
2023/07/16 02:24:12;;;;;;;7.75;1.27;;;;;;;13.32;100.00;99153.69;5048117;28;20034;-80
2023/07/16 02:26:39;;;;;;;6.35;1.50;;;;;;;13.34;100.00;99163.09;5051248;28;20033;-80
2023/07/16 02:29:08;;;;;;;8.85;1.60;;;;;;;13.34;100.00;99162.28;5052060;28;20036;-83
2023/07/16 02:31:35;;;;;;;6.53;1.50;;;;;;;13.34;100.00;99173.72;5021315;28;20071;-82
2023/07/16 02:34:01;;;;;;;5.18;1.30;;;;;;;13.30;100.00;99164.47;5036144;28;20035;-82
2023/07/16 02:36:27;;;;;;;11.57;1.38;;;;;;;13.27;100.00;99175.50;5054026;28;20503;-80
2023/07/16 02:38:53;;;;;;;9.60;1.63;;;;;;;13.28;100.00;99174.50;5031338;28;20120;-81
2023/07/16 02:41:19;;;;;;;11.07;1.40;;;;;;;13.30;100.00;99169.78;5029950;28;20029;-79
2023/07/16 02:43:45;;;;;;;5.30;0.90;;;;;;;13.28;100.00;99169.19;5030244;28;20107;-80
2023/07/16 02:46:13;;;;;;;11.57;1.60;;;;;;;13.29;100.00;99181.44;5035384;28;20043;-83
2023/07/16 02:48:39;;;;;;;10.63;1.27;;;;;;;13.28;100.00;99175.28;5047778;28;20032;-82
2023/07/16 02:51:04;;;;;;;8.48;1.50;;;;;;;13.26;100.00;99180.00;5064646;28;20035;-80
2023/07/16 02:53:30;;;;;;;6.72;1.15;;;;;;;13.27;100.00;99184.28;5032414;28;20093;-81
2023/07/16 02:55:56;;;;;;;3.35;0.95;;;;;;;13.27;100.00;99178.97;5027433;28;20025;-80
2023/07/16 02:58:22;;;;;;;6.47;1.00;;;;;;;13.24;100.00;99181.19;5062808;28;20036;-79
2023/07/16 03:00:47;;;;;;;7.70;1.13;;;;;;;13.21;100.00;99192.19;5047940;28;20049;-79
2023/07/16 03:03:13;;;;;;;9.88;1.33;;;;;;;13.20;100.00;99196.69;5043220;28;20039;-80
2023/07/16 03:05:39;;;;;;;5.22;1.08;;;;;;;13.21;100.00;99193.00;5051660;28;20064;-79
2023/07/16 03:08:05;;;;;;;10.52;1.63;;;;;;;13.22;100.00;99197.28;5030456;28;20436;-82
2023/07/16 03:10:31;;;;;;;8.30;1.48;;;;;;;13.23;100.00;99200.78;5060915;28;20102;-82
2023/07/16 03:12:57;;;;;;;13.05;1.27;;;;;;;13.22;100.00;99205.25;5028716;28;20033;-81
2023/07/16 03:15:23;;;;;;;4.30;1.05;;;;;;;13.21;100.00;99208.09;5036433;28;20036;-81
2023/07/16 03:17:49;;;;;;;9.60;1.10;;;;;;;13.21;100.00;99189.53;5047479;28;20111;-81
2023/07/16 03:20:15;;;;;;;9.27;1.70;;;;;;;13.21;100.00;99206.28;5032820;28;20444;-80
2023/07/16 03:22:41;;;;;;;7.07;1.30;;;;;;;13.23;100.00;99212.22;5047011;28;20025;-79
2023/07/16 03:25:07;;;;;;;9.55;1.60;;;;;;;13.27;100.00;99218.78;5033501;28;20043;-79
2023/07/16 03:27:33;;;;;;;8.25;1.35;;;;;;;13.28;100.00;99214.31;5048218;28;20123;-80
2023/07/16 03:30:00;;;;;;;15.10;2.28;;;;;;;13.26;100.00;99217.16;5027582;28;20024;-82
2023/07/16 03:32:27;;;;;;;9.40;1.63;;;;;;;13.26;100.00;99224.28;5032048;28;20043;-80
2023/07/16 03:34:52;;;;;;;9.40;1.98;;;;;;;13.26;100.00;99229.59;5057937;28;20029;-81
2023/07/16 03:37:18;;;;;;;7.13;1.38;;;;;;;13.24;100.00;99229.78;5032272;28;20047;-79
2023/07/16 03:39:47;;;;;;;10.73;2.00;;;;;;;13.21;100.00;99231.97;5031973;28;20091;-79
2023/07/16 03:42:13;;;;;;;18.35;3.22;;;;;;;13.20;100.00;99238.31;5040279;28;20028;-81
2023/07/16 03:44:38;;;;;;;8.20;1.55;;;;;;;13.19;100.00;99244.59;5044608;28;20032;-81
2023/07/16 03:47:04;;;;;;;10.65;1.35;;;;;;;13.20;100.00;99241.78;5054318;28;20427;-81
2023/07/16 03:49:30;;;;;;;6.55;1.40;;;;;;;13.17;100.00;99244.00;5003669;28;20063;-81
2023/07/16 03:51:56;;;;;;;10.45;1.08;;;;;;;13.16;100.00;99245.81;5008689;28;20114;-82
2023/07/16 03:54:22;;;;;;;8.30;1.30;;;;;;;13.17;100.00;99250.09;5030960;28;20492;-81
2023/07/16 03:56:48;;;;;;;8.25;1.02;;;;;;;13.17;100.00;99250.09;5079754;28;20032;-81
2023/07/16 03:59:13;;;;;;;12.52;2.22;;;;;;;13.16;100.00;99248.47;5023561;28;20048;-82
2023/07/16 04:01:39;;;;;;;9.05;1.10;;;;;;;13.14;100.00;99256.63;5050665;28;20029;-81
2023/07/16 04:04:05;;;;;;;7.43;1.67;;;;;;;13.15;100.00;99254.81;5050449;28;20102;-81
2023/07/16 04:06:31;;;;;;;14.30;1.60;;;;;;;13.12;100.00;99248.03;5054601;28;20044;-81
2023/07/16 04:08:57;;;;;;;7.40;1.27;;;;;;;13.13;100.00;99251.50;5055254;28;20488;-81
2023/07/16 04:11:23;;;;;;;9.77;1.73;;;;;;;13.11;100.00;99261.47;5025646;28;20043;-82
2023/07/16 04:13:48;;;;;;;6.25;1.50;;;;;;;13.11;100.00;99269.44;5065149;28;20029;-81
2023/07/16 04:16:14;;;;;;;8.77;1.17;;;;;;;13.10;100.00;99271.28;5051691;28;20028;-82
2023/07/16 04:18:40;;;;;;;9.02;1.73;;;;;;;13.08;100.00;99275.13;5030410;28;20106;-81
2023/07/16 04:21:06;;;;;;;7.72;1.67;;;;;;;13.06;100.00;99279.81;5064218;28;20033;-80
2023/07/16 04:23:31;;;;;;;8.02;1.30;;;;;;;13.05;100.00;99278.16;5014727;28;20035;-80
2023/07/16 04:25:57;;;;;;;7.70;1.85;;;;;;;13.07;100.00;99286.75;5037735;28;20070;-80
2023/07/16 04:28:23;;;;;;;9.82;1.63;;;;;;;13.06;100.00;99293.88;5039670;28;20032;-80
2023/07/16 04:30:49;;;;;;;8.80;1.40;;;;;;;13.06;100.00;99293.09;5066277;28;20028;-79
2023/07/16 04:33:15;;;;;;;8.75;1.35;;;;;;;13.04;100.00;99295.94;5050908;28;20605;-82
2023/07/16 04:35:40;;;;;;;14.15;1.30;;;;;;;13.07;100.00;99302.69;5049582;28;20039;-82
2023/07/16 04:38:07;;;;;;;9.02;1.50;;;;;;;13.09;100.00;99303.31;5061324;28;20480;-81
2023/07/16 04:40:33;;;;;;;6.82;1.00;;;;;;;13.07;100.00;99297.38;5057214;28;20032;-81
2023/07/16 04:42:59;;;;;;;11.60;1.85;;;;;;;13.10;100.00;99311.09;5045909;28;20125;-81
2023/07/16 04:45:25;;;;;;;7.00;1.42;;;;;;;13.12;100.00;99310.91;5047196;28;20025;-82
2023/07/16 04:47:51;;;;;;;8.43;1.20;;;;;;;13.12;100.00;99310.91;5043819;28;20032;-80
2023/07/16 04:50:16;;;;;;;11.05;2.60;;;;;;;13.12;100.00;99308.25;5068814;28;20044;-80
2023/07/16 04:52:42;;;;;;;10.48;1.80;;;;;;;13.14;100.00;99322.13;5028571;28;20044;-82
2023/07/16 04:55:08;;;;;;;8.00;1.80;;;;;;;13.15;100.00;99319.28;5040736;28;20024;-81
2023/07/16 04:57:34;;;;;;;8.27;1.60;;;;;;;13.15;100.00;99321.94;5022188;28;20036;-81
2023/07/16 05:00:00;;;;;;;10.10;1.40;;;;;;;13.17;100.00;99323.59;5046799;28;20079;-82
2023/07/16 05:02:26;;;;;;;13.00;1.27;;;;;;;13.20;100.00;99328.53;5052510;28;20044;-81
2023/07/16 05:04:51;;;;;;;5.97;1.33;;;;;;;13.21;100.00;99330.16;5056413;28;20033;-80
2023/07/16 05:07:17;;;;;;;7.93;1.40;;;;;;;13.24;100.00;99327.13;5058730;28;20132;-80
2023/07/16 05:09:43;;;;;;;11.70;1.42;;;;;;;13.25;100.00;99334.88;5059525;28;20492;-79
2023/07/16 05:12:09;;;;;;;8.27;1.65;;;;;;;13.23;100.00;99328.97;5048228;28;20025;-80
2023/07/16 05:14:45;;;;;;;8.23;1.75;;;;;;;13.25;100.00;99340.19;5048007;28;20048;-81
2023/07/16 05:17:12;;;;;;;11.48;1.85;;;;;;;13.24;100.00;99337.75;5028903;28;20029;-81
2023/07/16 05:19:38;;;;;;;6.97;1.38;;;;;;;13.26;100.00;99347.16;5032196;28;20127;-82
2023/07/16 05:22:04;;;;;;;13.35;1.63;;;;;;;13.26;100.00;99351.66;5064113;28;20109;-79
2023/07/16 05:24:31;;;;;;;12.13;1.48;;;;;;;13.26;100.00;99356.94;5059124;28;20551;-79
2023/07/16 05:26:56;;;;;;;10.05;1.50;;;;;;;13.27;100.00;99361.25;5061828;28;20490;-82
2023/07/16 05:29:22;;;;;;;5.13;1.15;;;;;;;13.25;100.00;99355.31;5034629;28;20043;-82
2023/07/16 05:31:48;;;;;;;14.23;2.33;;;;;;;13.27;100.00;99367.38;5066799;28;20063;-81
2023/07/16 05:34:14;;;;;;;12.25;1.60;;;;;;;13.28;100.00;99369.00;5043006;28;20430;-80
2023/07/16 05:36:41;;;;;;;14.40;1.83;;;;;;;13.28;100.00;99376.16;5044772;28;20483;-80
2023/07/16 05:39:08;;;;;;;6.65;1.58;;;;;;;13.24;100.00;99373.06;5067418;28;20090;-80
2023/07/16 05:41:34;;;;;;;11.35;2.22;;;;;;;13.27;100.00;99371.84;5011950;28;20035;-80
2023/07/16 05:44:00;;;;;;;12.27;2.38;;;;;;;13.29;100.00;99377.81;5080383;28;20036;-80
2023/07/16 05:46:26;;;;;;;6.40;1.65;;;;;;;13.31;100.00;99383.75;5066062;28;20029;-81
2023/07/16 05:48:52;;;;;;;8.82;1.50;;;;;;;13.36;100.00;99381.34;5034716;28;20051;-84
2023/07/16 05:51:18;;;;;;;11.23;1.83;;;;;;;13.40;100.00;99384.44;5048444;28;20654;-80
2023/07/16 05:53:43;;;;;;;12.80;2.30;;;;;;;13.38;100.00;99381.97;5055962;28;20472;-81
2023/07/16 05:56:09;;;;;;;8.02;1.45;;;;;;;13.39;100.00;99391.56;5063048;28;20028;-78
2023/07/16 05:58:35;;;;;;;16.10;2.60;;;;;;;13.36;100.00;99399.09;5068070;28;20036;-81
2023/07/16 06:01:01;;;;;;;10.00;1.50;;;;;;;13.34;100.00;99388.69;5013905;28;20029;-81
2023/07/16 06:03:27;;;;;;;6.45;1.50;;;;;;;13.35;100.00;99400.09;5022995;28;20465;-80
2023/07/16 06:05:53;;;;;;;11.75;2.40;;;;;;;13.36;100.00;99407.06;5031938;28;20525;-79
2023/07/16 06:08:20;;;;;;;8.00;1.42;;;;;;;13.35;100.00;99413.38;5047395;28;20499;-82
2023/07/16 06:10:45;;;;;;;4.43;1.05;;;;;;;13.33;100.00;99418.06;5013202;28;20111;-82
2023/07/16 06:13:11;;;;;;;10.13;1.60;;;;;;;13.26;100.00;99412.69;5012142;28;20028;-80
2023/07/16 06:15:37;;;;;;;8.40;2.13;;;;;;;13.22;100.00;99420.19;5048522;28;20029;-83
2023/07/16 06:18:03;;;;;;;6.07;1.35;;;;;;;13.17;100.00;99425.22;5023985;28;20068;-83
2023/07/16 06:20:29;;;;;;;7.32;1.25;;;;;;;13.11;100.00;99425.97;5030024;28;20033;-82
2023/07/16 06:22:54;;;;;;;11.20;1.85;;;;;;;13.06;100.00;99434.47;5019987;28;20629;-84
2023/07/16 06:25:20;;;;;;;5.38;1.02;;;;;;;13.05;100.00;99434.66;5014737;28;20045;-80
2023/07/16 06:27:46;;;;;;;7.38;1.88;;;;;;;13.07;100.00;99440.63;5040899;28;20029;-80
2023/07/16 06:30:12;;;;;;;13.82;1.92;;;;;;;13.05;100.00;99445.28;5012068;28;20025;-80
2023/07/16 06:32:37;;;;;;;8.15;1.60;;;;;;;13.05;100.00;99443.47;5011377;28;20086;-83
2023/07/16 06:35:04;;;;;;;9.73;1.70;;;;;;;13.07;100.00;99449.41;5045090;28;20068;-82
2023/07/16 06:37:29;;;;;;;6.53;1.50;;;;;;;13.12;100.00;99451.50;4958083;28;20029;-82
2023/07/16 06:39:55;;;;;;;6.78;1.70;;;;;;;13.14;100.00;99452.13;5031606;28;20033;-84
2023/07/16 06:42:21;;;;;;;13.40;2.13;;;;;;;13.17;100.00;99457.06;5023021;28;20056;-83
2023/07/16 06:44:48;;;;;;;9.85;1.98;;;;;;;13.19;100.00;99449.75;5016185;28;20489;-83
2023/07/16 06:47:15;;;;;;;8.57;1.67;;;;;;;13.21;100.00;99458.34;5049890;28;20040;-83
2023/07/16 06:49:40;;;;;;;8.20;1.77;;;;;;;13.18;100.00;99456.06;5015633;28;20390;-84
2023/07/16 06:52:06;;;;;;;15.35;1.60;;;;;;;13.17;100.00;99461.56;5013809;28;20036;-82
2023/07/16 06:54:32;;;;;;;17.88;2.45;;;;;;;13.15;100.00;99456.44;5012387;28;20043;-83
2023/07/16 06:56:58;;;;;;;11.93;2.08;;;;;;;13.14;100.00;99473.34;5031503;28;20029;-84
2023/07/16 06:59:24;;;;;;;9.55;1.60;;;;;;;13.18;100.00;99468.50;5055700;28;20070;-82
2023/07/16 07:01:50;;;;;;;13.32;2.53;;;;;;;13.21;100.00;99476.94;5073843;28;20073;-81
2023/07/16 07:04:15;;;;;;;10.48;2.05;;;;;;;13.24;100.00;99470.41;5071496;28;20078;-81
2023/07/16 07:06:41;;;;;;;10.73;2.58;;;;;;;13.24;100.00;99473.06;5090555;28;20099;-78
2023/07/16 07:09:07;;;;;;;15.27;2.25;;;;;;;13.25;100.00;99472.88;5052889;28;20050;-79
2023/07/16 07:11:33;;;;;;;11.77;2.20;;;;;;;13.22;100.00;99481.22;5053444;28;20036;-80
2023/07/16 07:13:59;;;;;;;11.25;2.22;;;;;;;13.26;100.00;99481.66;5059455;28;20028;-80
2023/07/16 07:16:24;;;;;;;11.70;1.77;;;;;;;13.28;100.00;99477.81;5075020;28;20067;-79
2023/07/16 07:18:50;;;;;;;12.25;3.13;;;;;;;13.34;100.00;99486.03;5065548;28;22083;-80
2023/07/16 07:21:16;;;;;;;11.13;2.40;;;;;;;13.36;100.00;99476.88;5053766;28;20036;-80
2023/07/16 07:23:42;;;;;;;11.90;2.45;;;;;;;13.45;100.00;99487.41;5063055;28;20056;-81
2023/07/16 07:26:08;;;;;;;14.07;2.00;;;;;;;13.56;100.00;99494.06;5060783;28;20032;-81
2023/07/16 07:28:34;;;;;;;8.23;1.95;;;;;;;13.65;100.00;99498.25;5085442;28;20058;-82
2023/07/16 07:31:01;;;;;;;7.72;1.80;;;;;;;13.69;100.00;99496.88;5072363;28;20064;-81
2023/07/16 07:33:26;;;;;;;12.82;1.98;;;;;;;13.59;100.00;99496.34;5053127;28;20040;-81
2023/07/16 07:35:56;;;;;;;11.98;2.08;;;;;;;13.64;100.00;99505.41;5076278;28;20065;-83
2023/07/16 07:38:22;;;;;;;16.02;1.88;;;;;;;13.67;100.00;99498.91;5050048;28;20072;-81
2023/07/16 07:40:47;;;;;;;14.85;2.60;;;;;;;13.84;100.00;99503.97;5049181;28;20036;-80
2023/07/16 07:43:13;;;;;;;15.85;2.38;;;;;;;13.88;100.00;99500.75;5065297;28;20027;-81
2023/07/16 07:45:39;;;;;;;8.65;1.60;;;;;;;13.94;100.00;99503.66;5071709;28;20040;-80
2023/07/16 07:48:05;;;;;;;17.77;2.33;;;;;;;13.91;100.00;99510.16;5053036;28;20036;-80
2023/07/16 07:50:31;;;;;;;8.70;1.83;;;;;;;13.93;100.00;99510.81;5035718;28;20060;-80
2023/07/16 07:52:56;;;;;;;9.55;2.10;;;;;;;14.05;100.00;99511.13;5048119;28;20031;-79
2023/07/16 07:55:22;;;;;;;13.15;2.20;;;;;;;14.27;100.00;99511.91;5049978;28;20032;-79
2023/07/16 07:57:48;;;;;;;9.48;1.75;;;;;;;14.47;100.00;99510.44;5070448;28;20155;-83
2023/07/16 08:00:14;;;;;;;10.50;2.20;;;;;;;14.59;100.00;99516.03;5088185;28;20442;-81
2023/07/16 08:02:41;;;;;;;14.75;2.08;;;;;;;14.79;100.00;99516.22;5058464;28;20484;-80
2023/07/16 08:05:07;;;;;;;7.20;2.03;;;;;;;15.00;100.00;99525.13;5066932;28;20036;-82
2023/07/16 08:07:33;;;;;;;10.00;2.05;;;;;;;15.06;100.00;99515.53;5042504;28;20042;-82
2023/07/16 08:09:59;;;;;;;10.32;1.40;;;;;;;15.13;100.00;99514.53;5054381;28;20575;-81
2023/07/16 08:12:25;;;;;;;9.77;1.65;;;;;;;15.13;100.00;99522.53;5062135;28;20905;-80
2023/07/16 08:14:50;;;;;;;11.38;3.00;;;;;;;15.11;100.00;99527.22;5070433;28;20028;-83
2023/07/16 08:17:16;;;;;;;12.07;1.80;;;;;;;15.08;100.00;99524.16;5052916;28;20500;-81
2023/07/16 08:19:42;;;;;;;9.00;1.95;;;;;;;15.07;100.00;99528.66;5070551;28;20040;-82
2023/07/16 08:22:07;;;;;;;6.95;1.63;;;;;;;15.01;100.00;99526.78;5067284;28;20039;-80
2023/07/16 08:24:33;;;;;;;10.40;1.75;;;;;;;15.00;100.00;99533.13;5086179;28;20035;-80
2023/07/16 08:26:59;;;;;;;5.22;1.08;;;;;;;15.08;100.00;99532.13;5048578;28;20401;-81
2023/07/16 08:29:25;;;;;;;5.20;1.25;;;;;;;15.19;100.00;99528.91;5069443;28;20043;-82
2023/07/16 08:31:51;;;;;;;7.95;1.77;;;;;;;15.34;100.00;99525.28;5053197;28;20040;-81
2023/07/16 08:34:16;;;;;;;5.07;1.13;;;;;;;15.40;100.00;99537.78;5036871;28;20035;-82
2023/07/16 08:36:44;;;;;;;12.27;1.58;;;;;;;15.41;100.00;99534.13;5032688;28;20024;-82
2023/07/16 08:39:09;;;;;;;7.93;2.05;;;;;;;15.35;100.00;99527.75;5037141;28;20411;-81
2023/07/16 08:41:35;;;;;;;10.00;1.50;;;;;;;15.38;100.00;99538.00;5060058;28;20028;-78
2023/07/16 08:44:01;;;;;;;6.93;1.10;;;;;;;15.43;100.00;99542.72;5050615;28;20120;-79
2023/07/16 08:46:27;;;;;;;3.90;1.15;;;;;;;15.58;100.00;99541.75;5089595;28;20054;-79
2023/07/16 08:48:53;;;;;;;5.05;1.20;;;;;;;15.70;100.00;99547.34;5051837;28;20472;-80
2023/07/16 08:51:20;;;;;;;11.10;1.67;;;;;;;15.90;100.00;99543.88;5066033;28;20085;-80
2023/07/16 08:53:46;;;;;;;7.95;1.30;;;;;;;15.92;100.00;99533.84;5044593;28;20048;-82
2023/07/16 08:56:13;;;;;;;7.65;1.38;;;;;;;16.12;100.00;99537.41;5045459;28;20050;-82
2023/07/16 08:58:38;;;;;;;6.45;1.25;;;;;;;16.28;100.00;99546.03;5054117;28;20443;-80
2023/07/16 09:01:05;;;;;;;13.00;1.55;;;;;;;16.29;100.00;99546.84;5037665;28;20123;-81
2023/07/16 09:03:31;;;;;;;9.32;1.27;;;;;;;16.27;100.00;99549.72;5043461;28;20059;-79
2023/07/16 09:05:57;;;;;;;9.63;1.40;;;;;;;16.26;100.00;99550.72;5047834;28;20767;-81
2023/07/16 09:08:28;;;;;;;7.20;1.30;;;;;;;16.32;100.00;99546.44;5060612;28;20083;-80
2023/07/16 09:10:55;;;;;;;11.88;2.17;;;;;;;16.24;100.00;99548.25;5046700;28;20036;-80
2023/07/16 09:13:26;;;;;;;6.68;1.67;;;;;;;16.11;100.00;99557.09;5002966;28;20041;-81
2023/07/16 09:15:53;;;;;;;8.15;1.25;;;;;;;16.10;100.00;99557.31;5047177;28;20151;-82
2023/07/16 09:18:27;;;;;;;6.07;1.30;;;;;;;16.13;100.00;99548.91;5064745;28;20036;-79
2023/07/16 09:21:02;;;;;;;10.00;1.35;;;;;;;16.17;100.00;99559.94;5059382;28;20037;-80
2023/07/16 09:23:29;;;;;;;;;;;;;;;15.91;100.00;99557.00;5080993;28;20020;-81
2023/07/16 09:25:55;;;;;;;7.50;1.70;;;;;;;15.87;100.00;99566.44;5079482;28;19917;-80
2023/07/16 09:28:21;;;;;;;6.45;1.95;;;;;;;15.87;100.00;99561.94;5045558;28;20048;-82
2023/07/16 09:30:48;;;;;;;7.85;1.35;;;;;;;15.81;100.00;99572.56;5037355;28;20119;-81
2023/07/16 09:33:15;;;;;;;8.38;1.40;;;;;;;15.70;100.00;99569.44;5051540;28;20036;-80
2023/07/16 09:35:42;;;;;;;6.45;1.63;;;;;;;15.61;100.00;99565.31;5065710;28;20060;-83
2023/07/16 09:38:09;;;;;;;10.25;1.45;;;;;;;15.61;100.00;99566.16;5025404;28;20975;-82
2023/07/16 09:40:42;;;;;;;9.80;1.52;;;;;;;15.68;100.00;99571.50;5031374;28;20158;-84
2023/07/16 09:43:08;;;;;;;10.32;1.50;;;;;;;15.68;100.00;99570.69;5013696;28;20404;-82
2023/07/16 09:45:35;;;;;;;10.63;3.50;;;;;;;15.73;100.00;99570.91;5030563;28;20033;-82
2023/07/16 09:48:04;;;;;;;5.57;1.20;;;;;;;15.69;100.00;99578.47;5043361;28;20032;-81
2023/07/16 09:50:34;;;;;;;8.55;1.63;;;;;;;15.72;100.00;99577.25;5029223;28;20064;-83
2023/07/16 09:53:02;;;;;;;6.72;1.38;;;;;;;15.76;100.00;99567.84;5048422;28;20511;-82
2023/07/16 09:55:31;;;;;;;8.50;1.77;;;;;;;15.96;100.00;99570.56;5048895;28;20076;-81
2023/07/16 09:57:59;;;;;;;9.95;1.75;;;;;;;16.11;100.00;99574.94;5053133;28;21159;-81
2023/07/16 10:00:27;;;;;;;8.98;1.50;;;;;;;16.22;100.00;99574.34;5041739;28;20519;-81
2023/07/16 10:02:54;;;;;;;10.52;1.70;;;;;;;16.21;100.00;99571.88;5042555;28;21205;-83
2023/07/16 10:05:28;;;;;;;8.00;1.13;;;;;;;16.19;100.00;99571.25;5017445;28;20039;-83
2023/07/16 10:08:00;;;;;;;8.40;1.40;;;;;;;16.16;100.00;99566.31;5068718;28;20027;-82
2023/07/16 10:10:37;;;;;;;10.38;1.40;;;;;;;16.20;100.00;99565.72;5045497;28;20519;-83
2023/07/16 10:13:03;;;;;;;11.20;2.00;;;;;;;16.29;100.00;99574.34;5006692;28;20041;-80
2023/07/16 10:15:30;;;;;;;9.73;1.33;;;;;;;16.41;100.00;99571.88;5065084;28;20657;-81
2023/07/16 10:17:57;;;;;;;8.82;1.67;;;;;;;16.49;100.00;99576.19;5050717;28;20067;-82
2023/07/16 10:20:42;;;;;;;11.43;1.15;;;;;;;16.56;100.00;99568.19;5084976;28;20036;-82
2023/07/16 10:23:13;;;;;;;8.88;1.27;;;;;;;16.65;100.00;99571.47;5036087;28;20066;-84
2023/07/16 10:25:39;;;;;;;8.77;1.45;;;;;;;16.79;100.00;99580.28;5063244;28;20553;-82
2023/07/16 10:28:05;;;;;;;10.32;1.58;;;;;;;16.89;100.00;99582.53;5044280;28;20099;-82
2023/07/16 10:30:32;;;;;;;9.73;1.50;;;;;;;16.88;100.00;99584.41;5048883;28;20036;-82
2023/07/16 10:33:02;;;;;;;8.30;1.25;;;;;;;16.89;100.00;99591.34;5014775;28;20369;-82
2023/07/16 10:35:28;;;;;;;8.07;1.48;;;;;;;16.78;100.00;99586.66;5066175;28;20032;-81
2023/07/16 10:37:54;;;;;;;7.65;1.38;;;;;;;16.73;100.00;99589.94;5035128;28;20443;-82
2023/07/16 10:40:20;;;;;;;9.27;1.67;;;;;;;16.61;100.00;99593.22;5049897;28;20476;-81
2023/07/16 10:42:48;;;;;;;4.25;1.00;;;;;;;16.65;100.00;99585.63;5068305;28;20025;-82
2023/07/16 10:45:15;;;;;;;5.18;0.93;;;;;;;16.77;100.00;99596.50;5054671;28;20543;-83
2023/07/16 10:47:52;;;;;;;3.83;1.13;;;;;;;16.92;100.00;99596.28;5067915;28;20508;-82
2023/07/16 10:50:20;;;;;;;4.13;0.90;;;;;;;16.96;100.00;99596.69;5064996;28;20040;-82
2023/07/16 10:52:45;;;;;;;3.33;1.00;;;;;;;16.92;100.00;99598.94;5033295;28;20058;-82
2023/07/16 10:55:11;;;;;;;3.08;1.38;;;;;;;16.89;100.00;99591.34;5063205;28;20513;-82
2023/07/16 10:57:37;;;;;;;10.30;2.05;;;;;;;16.92;100.00;99601.63;5052705;28;20432;-83
2023/07/16 11:00:03;;;;;;;5.72;1.30;;;;;;;16.86;100.00;99597.13;5049136;28;20493;-81
2023/07/16 11:02:30;;;;;;;7.97;1.38;;;;;;;16.89;100.00;99601.22;5050960;28;20039;-82
2023/07/16 11:04:57;;;;;;;4.88;1.52;;;;;;;16.86;100.00;99600.63;5067723;28;20040;-81
2023/07/16 11:07:23;;;;;;;5.25;1.15;;;;;;;16.83;100.00;99597.53;5071681;28;20040;-81
2023/07/16 11:09:52;;;;;;;4.50;1.88;;;;;;;16.84;100.00;99600.00;5068261;28;20024;-81
2023/07/16 11:12:20;;;;;;;8.63;1.45;;;;;;;16.92;100.00;99596.28;5066700;28;20055;-82
2023/07/16 11:14:51;;;;;;;6.50;1.60;;;;;;;17.21;100.00;99588.88;5032612;28;20040;-82
2023/07/16 11:17:17;;;;;;;5.55;1.35;;;;;;;17.33;100.00;99589.03;5019961;28;20028;-81
2023/07/16 11:19:48;;;;;;;6.85;1.38;;;;;;;17.52;100.00;99593.72;5028686;28;20040;-82